createdAt,value
2018-10-09T00:02:10.726Z,16.10
2018-10-09T00:04:37.920Z,16.10
2018-10-09T00:07:05.143Z,16.10
2018-10-09T00:09:32.369Z,16.00
2018-10-09T00:11:59.570Z,16.00
2018-10-09T00:14:26.824Z,16.00
2018-10-09T00:16:54.032Z,16.00
2018-10-09T00:19:21.261Z,16.00
2018-10-09T00:21:48.488Z,16.00
2018-10-09T00:24:15.714Z,16.10
2018-10-09T00:26:42.962Z,16.10
2018-10-09T00:29:10.305Z,16.00
2018-10-09T00:31:37.562Z,16.10
2018-10-09T00:34:04.732Z,16.00
2018-10-09T00:36:31.987Z,16.00
2018-10-09T00:38:59.227Z,16.00
2018-10-09T00:41:26.514Z,16.00
2018-10-09T00:43:53.712Z,16.00
2018-10-09T00:46:20.985Z,16.00
2018-10-09T00:48:48.232Z,15.90
2018-10-09T00:51:15.501Z,15.80
2018-10-09T00:53:42.784Z,15.80
2018-10-09T00:56:10.176Z,15.80
2018-10-09T00:58:37.412Z,15.70
2018-10-09T01:01:04.673Z,15.70
2018-10-09T01:03:31.940Z,15.80
2018-10-09T01:05:59.663Z,15.70
2018-10-09T01:08:26.913Z,15.80
2018-10-09T01:10:54.128Z,15.80
2018-10-09T01:13:21.341Z,15.70
2018-10-09T01:15:48.981Z,15.60
2018-10-09T01:18:16.269Z,15.70
2018-10-09T01:20:43.515Z,15.70
2018-10-09T01:23:10.736Z,15.70
2018-10-09T01:25:38.569Z,15.70
2018-10-09T01:28:05.876Z,15.70
2018-10-09T01:30:33.685Z,15.80
2018-10-09T01:33:01.553Z,15.80
2018-10-09T01:35:28.774Z,15.70
2018-10-09T01:37:56.072Z,15.50
2018-10-09T01:40:23.373Z,15.60
2018-10-09T01:42:51.527Z,15.50
2018-10-09T01:45:19.012Z,15.50
2018-10-09T01:47:46.227Z,15.60
2018-10-09T01:50:13.447Z,15.60
2018-10-09T01:52:40.624Z,15.60
2018-10-09T01:55:08.021Z,15.50
2018-10-09T01:57:35.403Z,15.50
2018-10-09T02:00:04.141Z,15.50
2018-10-09T02:02:31.466Z,15.50
2018-10-09T02:04:58.724Z,15.60
2018-10-09T02:07:25.865Z,15.50
2018-10-09T02:09:53.097Z,15.50
2018-10-09T02:12:20.352Z,15.30
2018-10-09T02:14:47.578Z,15.30
2018-10-09T02:17:14.860Z,15.50
2018-10-09T02:19:42.069Z,15.50
2018-10-09T02:22:09.232Z,15.40
2018-10-09T02:24:36.463Z,15.40
2018-10-09T02:27:03.852Z,15.40
2018-10-09T02:29:31.041Z,15.30
2018-10-09T02:31:58.253Z,15.40
2018-10-09T02:34:25.410Z,15.20
2018-10-09T02:36:52.579Z,15.30
2018-10-09T02:39:20.284Z,15.30
2018-10-09T02:41:47.508Z,15.30
2018-10-09T02:44:14.776Z,15.20
2018-10-09T02:46:41.928Z,15.20
2018-10-09T02:49:09.180Z,15.40
2018-10-09T02:51:36.414Z,15.40
2018-10-09T02:54:04.264Z,15.40
2018-10-09T02:56:31.588Z,15.30
2018-10-09T02:58:58.771Z,15.30
2018-10-09T03:01:26.014Z,15.30
2018-10-09T03:03:53.267Z,15.20
2018-10-09T03:06:20.501Z,15.20
2018-10-09T03:08:47.731Z,15.20
2018-10-09T03:11:14.990Z,15.10
2018-10-09T03:13:42.176Z,15.10
2018-10-09T03:16:09.468Z,15.10
2018-10-09T03:18:36.713Z,15.00
2018-10-09T03:21:03.872Z,15.10
2018-10-09T03:23:31.124Z,15.10
2018-10-09T03:25:58.349Z,15.20
2018-10-09T03:28:25.603Z,15.10
2018-10-09T03:30:52.856Z,15.10
2018-10-09T03:33:20.088Z,15.10
2018-10-09T03:35:47.308Z,15.00
2018-10-09T03:38:14.543Z,15.00
2018-10-09T03:40:41.769Z,15.10
2018-10-09T03:43:09.005Z,15.10
2018-10-09T03:45:36.245Z,15.10
2018-10-09T03:48:03.412Z,15.00
2018-10-09T03:50:30.661Z,15.20
2018-10-09T03:52:57.871Z,15.20
2018-10-09T03:55:25.229Z,15.10
2018-10-09T03:57:52.487Z,15.10
2018-10-09T04:00:19.804Z,15.00
2018-10-09T04:02:47.036Z,15.00
2018-10-09T04:05:14.345Z,15.00
2018-10-09T04:07:41.539Z,15.10
2018-10-09T04:10:08.764Z,15.10
2018-10-09T04:12:35.987Z,15.20
2018-10-09T04:15:03.767Z,15.10
2018-10-09T04:17:30.946Z,15.10
2018-10-09T04:19:58.180Z,15.10
2018-10-09T04:22:25.414Z,15.20
2018-10-09T04:24:52.584Z,15.20
2018-10-09T04:27:19.991Z,15.10
2018-10-09T04:29:47.714Z,15.00
2018-10-09T04:32:14.968Z,15.10
2018-10-09T04:34:42.180Z,15.10
2018-10-09T04:37:09.508Z,15.10
2018-10-09T04:39:36.736Z,15.10
2018-10-09T04:42:04.008Z,15.20
2018-10-09T04:44:31.392Z,15.20
2018-10-09T04:46:58.607Z,15.10
2018-10-09T04:49:25.843Z,15.20
2018-10-09T04:51:53.724Z,15.20
2018-10-09T04:54:21.011Z,15.20
2018-10-09T04:56:48.264Z,15.10
2018-10-09T04:59:16.030Z,15.10
2018-10-09T05:01:43.315Z,15.10
2018-10-09T05:04:10.537Z,15.10
2018-10-09T05:06:37.894Z,15.00
2018-10-09T05:09:07.653Z,14.90
2018-10-09T05:11:34.888Z,14.90
2018-10-09T05:14:02.143Z,14.90
2018-10-09T05:16:29.368Z,14.90
2018-10-09T05:18:56.602Z,14.90
2018-10-09T05:21:23.800Z,14.90
2018-10-09T05:23:51.024Z,14.80
2018-10-09T05:26:18.311Z,14.80
2018-10-09T05:28:45.528Z,14.80
2018-10-09T05:31:12.769Z,14.80
2018-10-09T05:33:39.921Z,14.80
2018-10-09T05:36:07.118Z,14.80
2018-10-09T05:38:34.390Z,14.80
2018-10-09T05:41:01.566Z,14.80
2018-10-09T05:43:28.808Z,14.80
2018-10-09T05:45:55.980Z,14.90
2018-10-09T05:48:23.250Z,14.90
2018-10-09T05:50:50.491Z,14.90
2018-10-09T05:53:17.693Z,14.90
2018-10-09T05:55:44.909Z,14.90
2018-10-09T05:58:12.211Z,14.80
2018-10-09T06:00:39.400Z,14.70
2018-10-09T06:03:06.679Z,14.80
2018-10-09T06:05:33.930Z,14.90
2018-10-09T06:08:01.192Z,15.00
2018-10-09T06:10:28.475Z,15.00
2018-10-09T06:12:55.656Z,16.00
2018-10-09T06:15:22.909Z,15.10
2018-10-09T06:17:50.049Z,15.10
2018-10-09T06:20:17.324Z,15.10
2018-10-09T06:22:44.594Z,15.00
2018-10-09T06:25:11.888Z,15.00
2018-10-09T06:27:39.268Z,15.00
2018-10-09T06:30:06.508Z,14.90
2018-10-09T06:32:34.281Z,14.90
2018-10-09T06:35:01.846Z,15.00
2018-10-09T06:37:29.056Z,15.00
2018-10-09T06:39:56.308Z,15.10
2018-10-09T06:42:23.587Z,15.00
2018-10-09T06:44:50.780Z,15.00
2018-10-09T06:47:17.989Z,15.00
2018-10-09T06:49:45.222Z,15.10
2018-10-09T06:52:12.436Z,15.00
2018-10-09T06:54:39.799Z,15.10
2018-10-09T06:57:07.021Z,15.20
2018-10-09T06:59:34.238Z,15.20
2018-10-09T07:02:01.441Z,15.20
2018-10-09T07:04:28.698Z,15.30
2018-10-09T07:06:55.931Z,15.20
2018-10-09T07:09:23.183Z,15.30
2018-10-09T07:11:50.421Z,15.40
2018-10-09T07:14:17.670Z,15.60
2018-10-09T07:16:44.886Z,15.50
2018-10-09T07:19:12.166Z,15.50
2018-10-09T07:21:39.458Z,15.50
2018-10-09T07:24:06.658Z,15.60
2018-10-09T07:26:33.937Z,15.60
2018-10-09T07:29:01.169Z,15.60
2018-10-09T07:31:28.385Z,15.70
2018-10-09T07:33:55.674Z,15.70
2018-10-09T07:36:22.875Z,15.70
2018-10-09T07:38:50.106Z,15.70
2018-10-09T07:41:17.393Z,15.80
2018-10-09T07:43:44.663Z,15.80
2018-10-09T07:46:11.988Z,15.90
2018-10-09T07:48:39.152Z,15.80
2018-10-09T07:51:06.665Z,15.90
2018-10-09T07:53:33.858Z,16.00
2018-10-09T07:56:01.126Z,15.90
2018-10-09T07:58:28.392Z,15.90
2018-10-09T08:00:55.589Z,16.00
2018-10-09T08:03:22.846Z,16.00
2018-10-09T08:05:50.074Z,16.10
2018-10-09T08:08:17.245Z,16.10
2018-10-09T08:10:44.523Z,16.30
2018-10-09T08:13:11.767Z,16.30
2018-10-09T08:15:38.964Z,16.40
2018-10-09T08:18:06.197Z,16.40
2018-10-09T08:20:33.427Z,16.40
2018-10-09T08:23:00.747Z,16.60
2018-10-09T08:25:27.871Z,16.50
2018-10-09T08:27:55.136Z,16.40
2018-10-09T08:30:22.361Z,16.40
2018-10-09T08:32:49.628Z,16.40
2018-10-09T08:35:16.793Z,16.50
2018-10-09T08:37:44.063Z,16.50
2018-10-09T08:40:11.370Z,16.50
2018-10-09T08:42:38.602Z,16.50
2018-10-09T08:45:06.137Z,16.50
2018-10-09T08:47:33.408Z,16.50
2018-10-09T08:50:00.673Z,16.60
2018-10-09T08:52:27.868Z,16.60
2018-10-09T08:54:55.072Z,16.60
2018-10-09T08:57:22.334Z,16.60
2018-10-09T08:59:50.529Z,16.70
2018-10-09T09:02:17.824Z,16.80
2018-10-09T09:04:45.089Z,16.90
2018-10-09T09:07:12.274Z,17.00
2018-10-09T09:09:39.610Z,17.00
2018-10-09T09:12:06.825Z,17.10
2018-10-09T09:14:34.101Z,17.10
2018-10-09T09:17:01.358Z,17.20
2018-10-09T09:19:28.579Z,17.20
2018-10-09T09:21:55.860Z,17.20
2018-10-09T09:24:23.093Z,17.30
2018-10-09T09:26:50.439Z,17.30
2018-10-09T09:29:17.647Z,17.30
2018-10-09T09:31:44.820Z,17.30
2018-10-09T09:34:12.002Z,17.30
2018-10-09T09:36:39.258Z,17.30
2018-10-09T09:39:07.396Z,17.30
2018-10-09T09:41:35.561Z,17.30
2018-10-09T09:44:03.586Z,17.30
2018-10-09T09:46:30.891Z,17.40
2018-10-09T09:48:58.141Z,17.40
2018-10-09T09:51:25.414Z,17.50
2018-10-09T09:53:52.584Z,17.50
2018-10-09T09:56:19.817Z,17.50
2018-10-09T09:58:47.200Z,17.60
2018-10-09T10:01:14.353Z,17.60
2018-10-09T10:03:41.746Z,17.60
2018-10-09T10:06:09.087Z,17.60
2018-10-09T10:08:36.475Z,17.60
2018-10-09T10:11:03.907Z,17.60
2018-10-09T10:13:31.105Z,17.70
2018-10-09T10:15:58.385Z,17.70
2018-10-09T10:18:26.073Z,17.60
2018-10-09T10:20:53.949Z,17.70
2018-10-09T10:23:21.230Z,17.70
2018-10-09T10:25:48.568Z,17.70
2018-10-09T10:28:16.168Z,17.80
2018-10-09T10:30:43.304Z,16.90
2018-10-09T10:33:10.483Z,17.80
2018-10-09T10:35:37.694Z,17.80
2018-10-09T10:38:04.905Z,17.90
2018-10-09T10:40:32.160Z,17.90
2018-10-09T10:42:59.452Z,17.90
2018-10-09T10:45:26.724Z,17.90
2018-10-09T10:47:54.109Z,17.90
2018-10-09T10:50:21.376Z,17.90
2018-10-09T10:52:48.629Z,17.90
2018-10-09T10:55:15.903Z,18.00
2018-10-09T10:57:43.154Z,18.00
2018-10-09T11:00:10.410Z,17.90
2018-10-09T11:02:37.665Z,18.00
2018-10-09T11:05:05.117Z,18.00
2018-10-09T11:07:32.688Z,18.00
2018-10-09T11:09:59.980Z,18.00
2018-10-09T11:12:27.288Z,18.10
2018-10-09T11:14:54.517Z,18.10
2018-10-09T11:17:21.761Z,18.10
2018-10-09T11:19:48.961Z,18.10
2018-10-09T11:22:16.205Z,18.10
2018-10-09T11:24:43.497Z,18.10
2018-10-09T11:27:10.805Z,18.10
2018-10-09T11:29:38.489Z,18.10
2018-10-09T11:32:06.168Z,18.10
2018-10-09T11:34:33.594Z,18.10
2018-10-09T11:37:00.919Z,18.20
2018-10-09T11:39:28.102Z,18.20
2018-10-09T11:41:55.386Z,18.20
2018-10-09T11:44:22.555Z,18.30
2018-10-09T11:46:49.818Z,18.40
2018-10-09T11:49:17.049Z,18.30
2018-10-09T11:51:44.283Z,18.40
2018-10-09T11:54:11.545Z,18.40
2018-10-09T11:56:38.845Z,18.40
2018-10-09T11:59:06.239Z,18.50
2018-10-09T12:01:33.436Z,18.50
2018-10-09T12:04:00.665Z,18.50
2018-10-09T12:06:28.517Z,18.50
2018-10-09T12:08:55.665Z,18.50
2018-10-09T12:11:22.929Z,18.60
2018-10-09T12:13:50.169Z,18.60
2018-10-09T12:16:17.661Z,18.60
2018-10-09T12:18:44.839Z,18.60
2018-10-09T12:21:12.031Z,18.70
2018-10-09T12:23:39.461Z,18.70
2018-10-09T12:26:06.966Z,18.70
2018-10-09T12:28:35.225Z,18.70
2018-10-09T12:31:02.511Z,18.70
2018-10-09T12:33:29.784Z,18.70
2018-10-09T12:35:57.056Z,18.80
2018-10-09T12:38:24.309Z,18.80
2018-10-09T12:40:51.471Z,18.80
2018-10-09T12:43:18.761Z,18.80
2018-10-09T12:45:45.985Z,18.80
2018-10-09T12:48:13.251Z,18.80
2018-10-09T12:50:40.506Z,18.90
2018-10-09T12:53:07.818Z,18.90
2018-10-09T12:55:35.006Z,18.90
2018-10-09T12:58:02.893Z,18.90
2018-10-09T13:00:30.285Z,18.90
2018-10-09T13:02:57.562Z,18.90
2018-10-09T13:05:24.814Z,18.90
2018-10-09T13:07:52.040Z,18.90
2018-10-09T13:10:19.280Z,18.90
2018-10-09T13:12:46.526Z,18.90
2018-10-09T13:15:13.777Z,18.90
2018-10-09T13:17:41.012Z,18.90
2018-10-09T13:20:08.412Z,18.90
2018-10-09T13:22:53.024Z,18.90
2018-10-09T13:25:20.167Z,18.90
2018-10-09T13:27:47.373Z,18.90
2018-10-09T13:30:14.671Z,18.90
2018-10-09T13:32:42.052Z,18.90
2018-10-09T13:35:09.232Z,18.90
2018-10-09T13:37:36.504Z,18.90
2018-10-09T13:40:03.845Z,18.90
2018-10-09T13:42:31.038Z,18.90
2018-10-09T13:44:58.285Z,18.90
2018-10-09T13:47:25.632Z,18.90
2018-10-09T13:49:52.674Z,18.90
2018-10-09T13:52:19.973Z,18.80
2018-10-09T13:54:47.301Z,18.80
2018-10-09T13:57:14.811Z,18.80
2018-10-09T13:59:42.077Z,18.80
2018-10-09T14:02:09.291Z,18.80
2018-10-09T14:04:36.453Z,18.80
2018-10-09T14:07:03.680Z,18.80
2018-10-09T14:09:30.837Z,18.80
2018-10-09T14:11:58.044Z,18.80
2018-10-09T14:14:25.305Z,18.80
2018-10-09T14:16:52.589Z,18.80
2018-10-09T14:19:19.872Z,18.80
2018-10-09T14:21:47.093Z,18.80
2018-10-09T14:24:14.341Z,18.80
2018-10-09T14:26:42.348Z,18.80
2018-10-09T14:29:09.645Z,18.80
2018-10-09T14:31:36.848Z,18.80
2018-10-09T14:34:04.117Z,18.80
2018-10-09T14:36:31.326Z,18.80
2018-10-09T14:38:58.563Z,18.90
2018-10-09T14:41:26.740Z,18.80
2018-10-09T14:43:54.052Z,18.80
2018-10-09T14:46:21.205Z,18.80
2018-10-09T14:48:48.408Z,18.80
2018-10-09T14:51:15.594Z,18.80
2018-10-09T14:53:42.851Z,18.80
2018-10-09T14:56:10.033Z,18.80
2018-10-09T14:58:37.214Z,18.80
2018-10-09T15:01:04.510Z,18.80
2018-10-09T15:03:31.806Z,18.80
2018-10-09T15:05:58.952Z,18.80
2018-10-09T15:08:26.148Z,18.80
2018-10-09T15:10:53.333Z,18.80
2018-10-09T15:13:20.601Z,18.80
2018-10-09T15:15:47.848Z,18.80
2018-10-09T15:18:15.085Z,18.80
2018-10-09T15:20:42.308Z,18.80
2018-10-09T15:23:09.647Z,18.80
2018-10-09T15:25:36.877Z,18.80
2018-10-09T15:28:04.273Z,18.80
2018-10-09T15:30:32.202Z,18.80
2018-10-09T15:32:59.633Z,18.80
2018-10-09T15:35:26.906Z,18.70
2018-10-09T15:37:54.117Z,18.80
2018-10-09T15:40:21.363Z,18.80
2018-10-09T15:42:48.596Z,18.80
2018-10-09T15:45:16.319Z,18.80
2018-10-09T15:47:43.565Z,18.80
2018-10-09T15:50:10.786Z,18.80
2018-10-09T15:52:38.136Z,18.80
2018-10-09T15:55:05.376Z,18.80
2018-10-09T15:57:32.602Z,18.80
2018-10-09T15:59:59.809Z,18.80
2018-10-09T16:02:26.981Z,18.80
2018-10-09T16:04:54.268Z,18.70
2018-10-09T16:07:22.369Z,18.70
2018-10-09T16:09:49.582Z,18.70
2018-10-09T16:12:16.840Z,18.70
2018-10-09T16:14:44.092Z,18.70
2018-10-09T16:17:11.264Z,18.70
2018-10-09T16:19:38.661Z,18.70
2018-10-09T16:22:06.006Z,18.70
2018-10-09T16:24:33.229Z,18.60
2018-10-09T16:27:00.456Z,18.60
2018-10-09T16:29:27.617Z,18.60
2018-10-09T16:31:54.797Z,18.60
2018-10-09T16:34:22.057Z,18.60
2018-10-09T16:36:49.353Z,18.60
2018-10-09T16:39:16.785Z,18.60
2018-10-09T16:41:44.105Z,18.50
2018-10-09T16:44:11.839Z,18.50
2018-10-09T16:46:39.393Z,18.50
2018-10-09T16:49:06.627Z,18.50
2018-10-09T16:51:33.864Z,18.40
2018-10-09T16:54:01.041Z,18.40
2018-10-09T16:56:28.249Z,18.40
2018-10-09T16:58:56.634Z,18.40
2018-10-09T17:01:24.888Z,18.40
2018-10-09T17:03:52.140Z,18.30
2018-10-09T17:06:19.317Z,18.30
2018-10-09T17:08:46.452Z,18.40
2018-10-09T17:11:13.625Z,18.30
2018-10-09T17:13:40.877Z,18.30
2018-10-09T17:16:08.145Z,18.20
2018-10-09T17:18:35.407Z,18.10
2018-10-09T17:21:02.647Z,18.00
2018-10-09T17:23:29.861Z,18.00
2018-10-09T17:25:57.098Z,18.00
2018-10-09T17:28:24.370Z,18.00
2018-10-09T17:30:51.510Z,17.90
2018-10-09T17:33:18.856Z,17.90
2018-10-09T17:35:46.014Z,17.80
2018-10-09T17:38:13.804Z,17.80
2018-10-09T17:40:41.016Z,17.80
2018-10-09T17:43:08.308Z,17.70
2018-10-09T17:45:35.499Z,17.70
2018-10-09T17:48:02.676Z,17.60
2018-10-09T17:50:29.884Z,17.60
2018-10-09T17:52:57.038Z,17.70
2018-10-09T17:55:24.265Z,17.60
2018-10-09T17:57:51.546Z,17.70
2018-10-09T18:00:18.849Z,17.60
2018-10-09T18:02:46.150Z,17.60
2018-10-09T18:05:13.342Z,17.60
2018-10-09T18:07:40.544Z,17.70
2018-10-09T18:10:07.809Z,17.70
2018-10-09T18:12:35.053Z,17.70
2018-10-09T18:15:02.335Z,17.70
2018-10-09T18:17:29.404Z,17.60
2018-10-09T18:19:56.944Z,17.60
2018-10-09T18:22:24.193Z,17.60
2018-10-09T18:24:51.357Z,17.60
2018-10-09T18:27:18.550Z,17.70
2018-10-09T18:29:45.694Z,17.70
2018-10-09T18:32:12.907Z,17.70
2018-10-09T18:34:40.097Z,17.70
2018-10-09T18:37:07.284Z,17.70
2018-10-09T18:39:34.493Z,17.60
2018-10-09T18:42:03.955Z,17.60
2018-10-09T18:44:31.319Z,17.60
2018-10-09T18:46:58.526Z,17.60
2018-10-09T18:49:25.772Z,17.50
2018-10-09T18:51:53.059Z,17.60
2018-10-09T18:54:20.250Z,17.60
2018-10-09T18:56:47.472Z,17.60
2018-10-09T18:59:14.697Z,17.50
2018-10-09T19:01:41.913Z,17.50
2018-10-09T19:04:09.115Z,17.50
2018-10-09T19:06:36.297Z,17.50
2018-10-09T19:09:07.018Z,17.50
2018-10-09T19:11:34.201Z,17.50
2018-10-09T19:14:01.454Z,17.50
2018-10-09T19:16:28.618Z,17.50
2018-10-09T19:18:55.805Z,17.50
2018-10-09T19:21:23.662Z,17.40
2018-10-09T19:23:51.043Z,17.40
2018-10-09T19:26:18.739Z,17.40
2018-10-09T19:28:45.927Z,17.40
2018-10-09T19:31:13.164Z,17.40
2018-10-09T19:33:40.409Z,17.40
2018-10-09T19:36:07.649Z,17.30
2018-10-09T19:38:34.893Z,17.40
2018-10-09T19:41:02.039Z,17.30
2018-10-09T19:43:30.501Z,17.30
2018-10-09T19:45:57.730Z,17.30
2018-10-09T19:48:25.013Z,17.30
2018-10-09T19:50:54.711Z,17.40
2018-10-09T19:53:21.929Z,17.40
2018-10-09T19:55:49.131Z,17.30
2018-10-09T19:58:16.345Z,17.30
2018-10-09T20:00:43.638Z,17.30
2018-10-09T20:03:10.932Z,17.30
2018-10-09T20:05:38.177Z,17.30
2018-10-09T20:08:05.602Z,17.20
2018-10-09T20:10:32.760Z,17.20
2018-10-09T20:13:00.030Z,17.20
2018-10-09T20:15:29.901Z,17.30
2018-10-09T20:17:57.157Z,17.20
2018-10-09T20:20:24.372Z,17.20
2018-10-09T20:22:51.509Z,17.20
2018-10-09T20:25:18.694Z,17.10
2018-10-09T20:27:45.912Z,17.20
2018-10-09T20:30:13.049Z,17.20
2018-10-09T20:32:40.297Z,17.20
2018-10-09T20:35:07.667Z,17.20
2018-10-09T20:37:34.912Z,17.10
2018-10-09T20:40:02.161Z,17.10
2018-10-09T20:42:29.416Z,17.10
2018-10-09T20:44:57.137Z,17.10
2018-10-09T20:47:30.119Z,17.20
2018-10-09T20:49:57.416Z,17.10
2018-10-09T20:52:24.669Z,17.10
2018-10-09T20:54:52.233Z,17.00
2018-10-09T20:57:19.478Z,17.10
2018-10-09T20:59:46.666Z,17.20
2018-10-09T21:02:13.837Z,17.10
2018-10-09T21:04:41.105Z,17.00
2018-10-09T21:07:08.336Z,17.00
2018-10-09T21:09:35.557Z,17.00
2018-10-09T21:12:02.769Z,17.00
2018-10-09T21:14:29.917Z,17.00
2018-10-09T21:16:57.839Z,17.00
2018-10-09T21:19:25.262Z,17.00
2018-10-09T21:21:52.597Z,17.00
2018-10-09T21:24:19.773Z,17.00
2018-10-09T21:26:47.030Z,17.00
2018-10-09T21:29:14.238Z,16.90
2018-10-09T21:31:41.391Z,16.90
2018-10-09T21:34:08.643Z,16.90
2018-10-09T21:36:36.900Z,16.90
2018-10-09T21:39:06.020Z,16.90
2018-10-09T21:41:33.239Z,16.90
2018-10-09T21:44:00.421Z,16.90
2018-10-09T21:46:27.650Z,16.90
2018-10-09T21:48:54.790Z,16.90
2018-10-09T21:51:22.110Z,16.80
2018-10-09T21:53:49.388Z,16.90
2018-10-09T21:56:16.561Z,16.90
2018-10-09T21:58:43.753Z,16.80
2018-10-09T22:01:11.952Z,16.90
2018-10-09T22:03:39.876Z,16.90
2018-10-09T22:06:07.454Z,16.90
2018-10-09T22:08:34.869Z,16.80
2018-10-09T22:11:02.036Z,16.80
2018-10-09T22:13:29.399Z,16.70
2018-10-09T22:15:56.628Z,16.80
2018-10-09T22:18:24.014Z,16.70
2018-10-09T22:20:51.405Z,16.70
2018-10-09T22:23:18.609Z,16.70
2018-10-09T22:25:46.130Z,16.70
2018-10-09T22:28:13.322Z,16.70
2018-10-09T22:30:40.540Z,16.70
2018-10-09T22:33:08.410Z,16.70
2018-10-09T22:35:35.659Z,16.70
2018-10-09T22:38:02.887Z,16.70
2018-10-09T22:40:30.083Z,16.70
2018-10-09T22:42:57.309Z,16.70
2018-10-09T22:45:24.560Z,16.80
2018-10-09T22:47:51.785Z,16.70
2018-10-09T22:50:19.648Z,16.60
2018-10-09T22:52:46.825Z,16.60
2018-10-09T22:55:14.039Z,16.60
2018-10-09T22:57:41.253Z,16.70
2018-10-09T23:00:08.705Z,16.60
2018-10-09T23:02:35.956Z,16.70
2018-10-09T23:05:03.209Z,16.60
2018-10-09T23:07:30.457Z,16.60
2018-10-09T23:09:57.756Z,16.60
2018-10-09T23:12:24.930Z,16.50
2018-10-09T23:14:52.109Z,15.50
2018-10-09T23:17:19.316Z,16.60
2018-10-09T23:19:46.517Z,16.60
2018-10-09T23:22:13.689Z,16.60
2018-10-09T23:24:40.941Z,16.60
2018-10-09T23:27:08.321Z,16.60
2018-10-09T23:29:35.567Z,16.60
2018-10-09T23:32:02.946Z,16.60
2018-10-09T23:34:30.157Z,16.60
2018-10-09T23:36:57.453Z,16.50
2018-10-09T23:39:24.784Z,16.50
2018-10-09T23:41:52.056Z,16.50
2018-10-09T23:44:19.293Z,16.50
2018-10-09T23:46:46.485Z,16.40
2018-10-09T23:49:13.700Z,16.50
2018-10-09T23:51:40.892Z,16.40
2018-10-09T23:54:08.145Z,16.40
2018-10-09T23:56:35.371Z,16.40
2018-10-09T23:59:02.608Z,16.50
